sensor_id;sensor_type;location;lat;lon;timestamp;temperature;humidity
33865;DHT22;20159;51.072;13.526;2023-04-01T00:00:33;12.00;91.10
33865;DHT22;20159;51.072;13.526;2023-04-01T00:02:59;12.00;91.20
33865;DHT22;20159;51.072;13.526;2023-04-01T00:05:25;12.00;91.30
33865;DHT22;20159;51.072;13.526;2023-04-01T00:07:51;12.00;91.30
33865;DHT22;20159;51.072;13.526;2023-04-01T00:10:17;12.00;91.40
33865;DHT22;20159;51.072;13.526;2023-04-01T00:12:43;11.90;91.30
33865;DHT22;20159;51.072;13.526;2023-04-01T00:15:10;11.90;91.30
33865;DHT22;20159;51.072;13.526;2023-04-01T00:17:36;11.90;91.40
33865;DHT22;20159;51.072;13.526;2023-04-01T00:20:03;11.90;91.40
33865;DHT22;20159;51.072;13.526;2023-04-01T00:22:29;11.90;91.50
33865;DHT22;20159;51.072;13.526;2023-04-01T00:24:55;11.90;91.60
33865;DHT22;20159;51.072;13.526;2023-04-01T00:27:29;11.90;91.70
33865;DHT22;20159;51.072;13.526;2023-04-01T00:29:55;11.90;91.80
33865;DHT22;20159;51.072;13.526;2023-04-01T00:32:21;11.90;91.80
33865;DHT22;20159;51.072;13.526;2023-04-01T00:34:50;11.90;91.90
33865;DHT22;20159;51.072;13.526;2023-04-01T00:37:17;11.80;91.90
33865;DHT22;20159;51.072;13.526;2023-04-01T00:39:42;11.80;91.90
33865;DHT22;20159;51.072;13.526;2023-04-01T00:42:09;11.80;91.90
33865;DHT22;20159;51.072;13.526;2023-04-01T00:44:38;11.80;92.00
33865;DHT22;20159;51.072;13.526;2023-04-01T00:47:03;11.80;92.00
33865;DHT22;20159;51.072;13.526;2023-04-01T00:49:39;11.80;92.00
33865;DHT22;20159;51.072;13.526;2023-04-01T00:52:08;11.70;92.10
33865;DHT22;20159;51.072;13.526;2023-04-01T00:54:36;11.70;92.00
33865;DHT22;20159;51.072;13.526;2023-04-01T00:57:21;11.70;92.00
33865;DHT22;20159;51.072;13.526;2023-04-01T00:59:51;11.70;92.10
33865;DHT22;20159;51.072;13.526;2023-04-01T01:02:18;11.70;92.10
33865;DHT22;20159;51.072;13.526;2023-04-01T01:04:45;11.60;92.00
33865;DHT22;20159;51.072;13.526;2023-04-01T01:07:24;11.70;92.10
33865;DHT22;20159;51.072;13.526;2023-04-01T01:16:09;11.60;92.20
33865;DHT22;20159;51.072;13.526;2023-04-01T01:18:43;11.60;92.40
33865;DHT22;20159;51.072;13.526;2023-04-01T01:21:37;11.60;92.20
33865;DHT22;20159;51.072;13.526;2023-04-01T01:24:46;11.60;92.40
33865;DHT22;20159;51.072;13.526;2023-04-01T01:27:20;11.60;92.40
33865;DHT22;20159;51.072;13.526;2023-04-01T01:30:09;11.60;92.30
33865;DHT22;20159;51.072;13.526;2023-04-01T01:32:53;11.60;92.40
33865;DHT22;20159;51.072;13.526;2023-04-01T01:38:14;11.60;92.20
33865;DHT22;20159;51.072;13.526;2023-04-01T01:40:43;11.50;92.40
33865;DHT22;20159;51.072;13.526;2023-04-01T01:43:13;11.60;92.20
33865;DHT22;20159;51.072;13.526;2023-04-01T01:45:43;11.60;92.20
33865;DHT22;20159;51.072;13.526;2023-04-01T01:48:11;11.60;92.30
33865;DHT22;20159;51.072;13.526;2023-04-01T01:50:37;11.50;92.20
33865;DHT22;20159;51.072;13.526;2023-04-01T01:53:10;11.60;92.20
33865;DHT22;20159;51.072;13.526;2023-04-01T01:55:38;11.60;92.30
33865;DHT22;20159;51.072;13.526;2023-04-01T02:00:41;11.60;92.20
33865;DHT22;20159;51.072;13.526;2023-04-01T02:03:10;11.60;92.10
33865;DHT22;20159;51.072;13.526;2023-04-01T02:05:37;11.60;92.00
33865;DHT22;20159;51.072;13.526;2023-04-01T02:08:20;11.50;92.00
33865;DHT22;20159;51.072;13.526;2023-04-01T02:11:01;11.50;92.10
33865;DHT22;20159;51.072;13.526;2023-04-01T02:13:55;11.50;92.00
33865;DHT22;20159;51.072;13.526;2023-04-01T02:16:29;11.50;92.00
33865;DHT22;20159;51.072;13.526;2023-04-01T02:18:57;11.50;92.10
33865;DHT22;20159;51.072;13.526;2023-04-01T02:21:33;11.50;92.00
33865;DHT22;20159;51.072;13.526;2023-04-01T02:24:02;11.50;92.00
33865;DHT22;20159;51.072;13.526;2023-04-01T02:26:30;11.90;92.20
33865;DHT22;20159;51.072;13.526;2023-04-01T02:28:56;11.40;92.20
33865;DHT22;20159;51.072;13.526;2023-04-01T02:31:23;11.50;92.20
33865;DHT22;20159;51.072;13.526;2023-04-01T02:33:51;11.40;92.20
33865;DHT22;20159;51.072;13.526;2023-04-01T02:36:17;11.40;92.40
33865;DHT22;20159;51.072;13.526;2023-04-01T02:38:44;11.40;92.20
33865;DHT22;20159;51.072;13.526;2023-04-01T02:41:11;11.40;92.20
33865;DHT22;20159;51.072;13.526;2023-04-01T02:43:37;11.40;92.10
33865;DHT22;20159;51.072;13.526;2023-04-01T02:46:02;11.30;92.10
33865;DHT22;20159;51.072;13.526;2023-04-01T02:48:28;11.30;92.10
33865;DHT22;20159;51.072;13.526;2023-04-01T02:50:54;11.30;92.10
33865;DHT22;20159;51.072;13.526;2023-04-01T02:53:20;11.30;92.10
33865;DHT22;20159;51.072;13.526;2023-04-01T02:55:45;11.30;92.10
33865;DHT22;20159;51.072;13.526;2023-04-01T02:58:11;11.20;92.20
33865;DHT22;20159;51.072;13.526;2023-04-01T03:00:37;11.20;92.20
33865;DHT22;20159;51.072;13.526;2023-04-01T03:03:03;11.20;92.20
33865;DHT22;20159;51.072;13.526;2023-04-01T03:05:29;11.20;92.20
33865;DHT22;20159;51.072;13.526;2023-04-01T03:07:55;11.20;92.20
33865;DHT22;20159;51.072;13.526;2023-04-01T03:10:21;11.20;92.20
33865;DHT22;20159;51.072;13.526;2023-04-01T03:12:46;11.20;92.20
33865;DHT22;20159;51.072;13.526;2023-04-01T03:15:13;11.20;92.20
33865;DHT22;20159;51.072;13.526;2023-04-01T03:17:40;11.10;92.30
33865;DHT22;20159;51.072;13.526;2023-04-01T03:20:07;11.20;92.30
33865;DHT22;20159;51.072;13.526;2023-04-01T03:22:34;11.20;92.30
33865;DHT22;20159;51.072;13.526;2023-04-01T03:25:01;11.10;92.30
33865;DHT22;20159;51.072;13.526;2023-04-01T03:27:26;11.20;92.30
33865;DHT22;20159;51.072;13.526;2023-04-01T03:29:52;11.20;92.20
33865;DHT22;20159;51.072;13.526;2023-04-01T03:32:17;13.20;92.70
33865;DHT22;20159;51.072;13.526;2023-04-01T03:34:43;11.10;92.20
33865;DHT22;20159;51.072;13.526;2023-04-01T03:37:08;11.10;92.20
33865;DHT22;20159;51.072;13.526;2023-04-01T03:39:34;11.10;92.20
33865;DHT22;20159;51.072;13.526;2023-04-01T03:42:00;11.10;92.20
33865;DHT22;20159;51.072;13.526;2023-04-01T03:44:25;11.10;92.20
33865;DHT22;20159;51.072;13.526;2023-04-01T03:46:51;11.10;92.20
33865;DHT22;20159;51.072;13.526;2023-04-01T03:49:17;11.10;92.20
33865;DHT22;20159;51.072;13.526;2023-04-01T03:51:43;11.10;92.20
33865;DHT22;20159;51.072;13.526;2023-04-01T03:54:10;11.10;92.20
33865;DHT22;20159;51.072;13.526;2023-04-01T03:56:36;11.10;92.20
33865;DHT22;20159;51.072;13.526;2023-04-01T03:59:04;11.10;92.30
33865;DHT22;20159;51.072;13.526;2023-04-01T04:01:30;11.10;92.50
33865;DHT22;20159;51.072;13.526;2023-04-01T04:03:56;11.10;92.40
33865;DHT22;20159;51.072;13.526;2023-04-01T04:06:22;11.10;92.20
33865;DHT22;20159;51.072;13.526;2023-04-01T04:08:48;11.00;92.10
33865;DHT22;20159;51.072;13.526;2023-04-01T04:11:14;11.10;92.10
33865;DHT22;20159;51.072;13.526;2023-04-01T04:13:40;11.10;92.10
33865;DHT22;20159;51.072;13.526;2023-04-01T04:16:05;11.10;92.10
33865;DHT22;20159;51.072;13.526;2023-04-01T04:18:31;11.10;92.00
33865;DHT22;20159;51.072;13.526;2023-04-01T04:20:56;11.20;92.10
33865;DHT22;20159;51.072;13.526;2023-04-01T04:23:22;11.20;92.00
33865;DHT22;20159;51.072;13.526;2023-04-01T04:26:00;11.20;92.00
33865;DHT22;20159;51.072;13.526;2023-04-01T04:28:27;11.20;91.90
33865;DHT22;20159;51.072;13.526;2023-04-01T04:30:53;11.30;91.80
33865;DHT22;20159;51.072;13.526;2023-04-01T04:33:20;11.20;91.70
33865;DHT22;20159;51.072;13.526;2023-04-01T04:35:45;11.30;91.80
33865;DHT22;20159;51.072;13.526;2023-04-01T04:38:11;11.30;91.70
33865;DHT22;20159;51.072;13.526;2023-04-01T04:40:37;11.30;91.60
33865;DHT22;20159;51.072;13.526;2023-04-01T04:43:03;11.40;91.60
33865;DHT22;20159;51.072;13.526;2023-04-01T04:45:29;11.40;91.60
33865;DHT22;20159;51.072;13.526;2023-04-01T04:47:55;11.40;91.70
33865;DHT22;20159;51.072;13.526;2023-04-01T04:50:21;11.40;91.60
33865;DHT22;20159;51.072;13.526;2023-04-01T04:52:46;11.40;91.60
33865;DHT22;20159;51.072;13.526;2023-04-01T04:55:12;12.20;91.70
33865;DHT22;20159;51.072;13.526;2023-04-01T04:57:37;11.40;91.50
33865;DHT22;20159;51.072;13.526;2023-04-01T05:00:03;11.40;91.50
33865;DHT22;20159;51.072;13.526;2023-04-01T05:02:29;11.50;91.50
33865;DHT22;20159;51.072;13.526;2023-04-01T05:04:55;11.50;91.50
33865;DHT22;20159;51.072;13.526;2023-04-01T05:07:20;11.20;91.40
33865;DHT22;20159;51.072;13.526;2023-04-01T05:09:46;11.60;91.50
33865;DHT22;20159;51.072;13.526;2023-04-01T05:12:12;11.50;91.50
33865;DHT22;20159;51.072;13.526;2023-04-01T05:14:38;11.60;91.50
33865;DHT22;20159;51.072;13.526;2023-04-01T05:17:04;11.60;91.50
33865;DHT22;20159;51.072;13.526;2023-04-01T05:19:29;11.60;91.60
33865;DHT22;20159;51.072;13.526;2023-04-01T05:21:55;11.60;91.50
33865;DHT22;20159;51.072;13.526;2023-04-01T05:24:20;11.60;91.40
33865;DHT22;20159;51.072;13.526;2023-04-01T05:26:46;11.60;91.50
33865;DHT22;20159;51.072;13.526;2023-04-01T05:29:11;11.60;91.60
33865;DHT22;20159;51.072;13.526;2023-04-01T05:31:37;11.60;91.60
33865;DHT22;20159;51.072;13.526;2023-04-01T05:34:02;11.70;91.80
33865;DHT22;20159;51.072;13.526;2023-04-01T05:36:28;11.60;91.70
33865;DHT22;20159;51.072;13.526;2023-04-01T05:38:56;11.70;91.80
33865;DHT22;20159;51.072;13.526;2023-04-01T05:41:22;11.60;91.70
33865;DHT22;20159;51.072;13.526;2023-04-01T05:43:47;11.70;91.80
33865;DHT22;20159;51.072;13.526;2023-04-01T05:46:13;11.70;91.90
33865;DHT22;20159;51.072;13.526;2023-04-01T05:48:38;11.60;91.90
33865;DHT22;20159;51.072;13.526;2023-04-01T05:51:04;13.80;92.40
33865;DHT22;20159;51.072;13.526;2023-04-01T05:53:30;11.70;91.90
33865;DHT22;20159;51.072;13.526;2023-04-01T05:55:56;11.70;92.00
33865;DHT22;20159;51.072;13.526;2023-04-01T05:58:21;11.70;92.10
33865;DHT22;20159;51.072;13.526;2023-04-01T06:00:47;11.70;92.10
33865;DHT22;20159;51.072;13.526;2023-04-01T06:03:12;11.70;92.10
33865;DHT22;20159;51.072;13.526;2023-04-01T06:05:43;11.70;91.90
33865;DHT22;20159;51.072;13.526;2023-04-01T06:08:14;11.80;91.80
33865;DHT22;20159;51.072;13.526;2023-04-01T06:16:22;11.90;91.50
33865;DHT22;20159;51.072;13.526;2023-04-01T06:19:12;11.90;91.40
33865;DHT22;20159;51.072;13.526;2023-04-01T06:22:08;12.00;91.70
33865;DHT22;20159;51.072;13.526;2023-04-01T06:25:12;12.10;91.40
33865;DHT22;20159;51.072;13.526;2023-04-01T06:28:07;12.20;91.50
33865;DHT22;20159;51.072;13.526;2023-04-01T06:33:22;12.40;91.10
33865;DHT22;20159;51.072;13.526;2023-04-01T06:36:22;12.50;91.10
33865;DHT22;20159;51.072;13.526;2023-04-01T06:41:57;12.70;90.70
33865;DHT22;20159;51.072;13.526;2023-04-01T06:44:55;12.80;90.50
33865;DHT22;20159;51.072;13.526;2023-04-01T06:47:58;12.90;90.40
33865;DHT22;20159;51.072;13.526;2023-04-01T06:51:00;13.00;90.20
33865;DHT22;20159;51.072;13.526;2023-04-01T06:54:12;13.00;90.20
33865;DHT22;20159;51.072;13.526;2023-04-01T06:56:42;13.20;89.30
33865;DHT22;20159;51.072;13.526;2023-04-01T06:59:20;13.20;89.80
33865;DHT22;20159;51.072;13.526;2023-04-01T07:01:50;13.30;89.30
33865;DHT22;20159;51.072;13.526;2023-04-01T07:04:30;13.40;89.00
33865;DHT22;20159;51.072;13.526;2023-04-01T07:06:59;11.50;87.60
33865;DHT22;20159;51.072;13.526;2023-04-01T07:09:36;13.60;88.40
33865;DHT22;20159;51.072;13.526;2023-04-01T07:12:18;13.60;86.80
33865;DHT22;20159;51.072;13.526;2023-04-01T07:14:46;13.70;87.60
33865;DHT22;20159;51.072;13.526;2023-04-01T07:17:20;13.70;87.70
33865;DHT22;20159;51.072;13.526;2023-04-01T07:20:33;13.80;87.30
33865;DHT22;20159;51.072;13.526;2023-04-01T07:22:55;13.80;86.20
33865;DHT22;20159;51.072;13.526;2023-04-01T07:25:29;13.90;86.20
33865;DHT22;20159;51.072;13.526;2023-04-01T07:28:06;14.00;86.00
33865;DHT22;20159;51.072;13.526;2023-04-01T07:36:48;14.00;84.90
33865;DHT22;20159;51.072;13.526;2023-04-01T07:45:34;14.10;85.10
33865;DHT22;20159;51.072;13.526;2023-04-01T07:54:28;14.30;86.00
33865;DHT22;20159;51.072;13.526;2023-04-01T07:57:03;14.50;86.60
33865;DHT22;20159;51.072;13.526;2023-04-01T07:59:56;14.70;85.70
33865;DHT22;20159;51.072;13.526;2023-04-01T08:02:31;14.90;85.10
33865;DHT22;20159;51.072;13.526;2023-04-01T08:05:24;15.10;84.10
33865;DHT22;20159;51.072;13.526;2023-04-01T08:19:40;16.70;81.10
33865;DHT22;20159;51.072;13.526;2023-04-01T08:22:15;17.00;81.60
33865;DHT22;20159;51.072;13.526;2023-04-01T08:24:45;17.20;81.50
33865;DHT22;20159;51.072;13.526;2023-04-01T08:27:26;17.40;79.20
33865;DHT22;20159;51.072;13.526;2023-04-01T08:30:03;17.50;77.30
33865;DHT22;20159;51.072;13.526;2023-04-01T08:32:34;17.70;76.60
33865;DHT22;20159;51.072;13.526;2023-04-01T08:37:38;17.80;76.20
33865;DHT22;20159;51.072;13.526;2023-04-01T08:45:46;18.10;76.90
33865;DHT22;20159;51.072;13.526;2023-04-01T08:57:03;18.50;74.80
33865;DHT22;20159;51.072;13.526;2023-04-01T08:59:57;18.60;70.90
33865;DHT22;20159;51.072;13.526;2023-04-01T09:02:56;18.60;72.00
33865;DHT22;20159;51.072;13.526;2023-04-01T09:11:06;18.50;71.50
33865;DHT22;20159;51.072;13.526;2023-04-01T09:19:54;18.30;70.40
33865;DHT22;20159;51.072;13.526;2023-04-01T09:22:50;18.20;69.70
33865;DHT22;20159;51.072;13.526;2023-04-01T09:25:34;18.10;70.40
33865;DHT22;20159;51.072;13.526;2023-04-01T09:28:36;18.00;70.30
33865;DHT22;20159;51.072;13.526;2023-04-01T09:36:46;17.70;71.10
33865;DHT22;20159;51.072;13.526;2023-04-01T09:39:35;17.50;70.90
33865;DHT22;20159;51.072;13.526;2023-04-01T09:44:52;17.40;72.40
33865;DHT22;20159;51.072;13.526;2023-04-01T09:50:06;17.30;70.90
33865;DHT22;20159;51.072;13.526;2023-04-01T09:53:07;17.30;71.40
33865;DHT22;20159;51.072;13.526;2023-04-01T10:10:47;16.80;72.20
33865;DHT22;20159;51.072;13.526;2023-04-01T10:24:23;16.40;72.70
33865;DHT22;20159;51.072;13.526;2023-04-01T10:27:06;16.30;72.30
33865;DHT22;20159;51.072;13.526;2023-04-01T10:29:45;16.20;71.90
33865;DHT22;20159;51.072;13.526;2023-04-01T10:32:45;16.20;72.50
33865;DHT22;20159;51.072;13.526;2023-04-01T10:38:50;16.00;74.40
33865;DHT22;20159;51.072;13.526;2023-04-01T10:55:47;15.60;78.20
33865;DHT22;20159;51.072;13.526;2023-04-01T11:10:25;15.50;79.40
33865;DHT22;20159;51.072;13.526;2023-04-01T11:13:06;15.50;80.50
33865;DHT22;20159;51.072;13.526;2023-04-01T11:15:57;15.60;78.80
33865;DHT22;20159;51.072;13.526;2023-04-01T11:18:56;15.70;79.60
33865;DHT22;20159;51.072;13.526;2023-04-01T11:35:09;16.50;80.30
33865;DHT22;20159;51.072;13.526;2023-04-01T11:44:25;16.60;80.50
33865;DHT22;20159;51.072;13.526;2023-04-01T11:50:01;16.50;79.90
33865;DHT22;20159;51.072;13.526;2023-04-01T11:52:59;16.50;79.50
33865;DHT22;20159;51.072;13.526;2023-04-01T11:55:57;16.50;79.70
33865;DHT22;20159;51.072;13.526;2023-04-01T11:58:49;16.60;78.80
33865;DHT22;20159;51.072;13.526;2023-04-01T12:04:23;16.70;81.50
33865;DHT22;20159;51.072;13.526;2023-04-01T12:07:10;16.90;80.50
33865;DHT22;20159;51.072;13.526;2023-04-01T12:12:41;17.20;79.00
33865;DHT22;20159;51.072;13.526;2023-04-01T12:15:23;17.30;79.60
33865;DHT22;20159;51.072;13.526;2023-04-01T12:18:40;17.40;78.20
33865;DHT22;20159;51.072;13.526;2023-04-01T12:23:58;17.50;77.30
33865;DHT22;20159;51.072;13.526;2023-04-01T12:26:55;17.60;76.70
33865;DHT22;20159;51.072;13.526;2023-04-01T12:29:49;17.60;76.40
33865;DHT22;20159;51.072;13.526;2023-04-01T12:35:17;17.90;78.00
33865;DHT22;20159;51.072;13.526;2023-04-01T12:37:59;18.00;78.20
33865;DHT22;20159;51.072;13.526;2023-04-01T12:41:03;18.40;78.30
33865;DHT22;20159;51.072;13.526;2023-04-01T12:43:58;18.70;76.30
33865;DHT22;20159;51.072;13.526;2023-04-01T12:54:31;19.40;71.80
33865;DHT22;20159;51.072;13.526;2023-04-01T12:57:18;19.40;71.40
33865;DHT22;20159;51.072;13.526;2023-04-01T13:00:14;19.40;70.40
33865;DHT22;20159;51.072;13.526;2023-04-01T13:08:18;18.90;70.20
33865;DHT22;20159;51.072;13.526;2023-04-01T13:11:18;18.80;71.20
33865;DHT22;20159;51.072;13.526;2023-04-01T13:14:24;18.70;71.90
33865;DHT22;20159;51.072;13.526;2023-04-01T13:17:02;18.70;73.60
33865;DHT22;20159;51.072;13.526;2023-04-01T13:19:47;18.80;73.40
33865;DHT22;20159;51.072;13.526;2023-04-01T13:25:35;19.40;70.10
33865;DHT22;20159;51.072;13.526;2023-04-01T13:28:15;19.60;69.10
33865;DHT22;20159;51.072;13.526;2023-04-01T13:41:59;20.00;67.20
33865;DHT22;20159;51.072;13.526;2023-04-01T14:01:25;19.50;65.90
33865;DHT22;20159;51.072;13.526;2023-04-01T14:04:32;19.50;66.10
33865;DHT22;20159;51.072;13.526;2023-04-01T14:07:12;19.40;65.10
33865;DHT22;20159;51.072;13.526;2023-04-01T14:10:04;19.30;65.90
33865;DHT22;20159;51.072;13.526;2023-04-01T14:13:09;19.10;65.40
33865;DHT22;20159;51.072;13.526;2023-04-01T14:16:04;19.10;65.80
33865;DHT22;20159;51.072;13.526;2023-04-01T14:18:52;18.90;64.50
33865;DHT22;20159;51.072;13.526;2023-04-01T14:21:43;18.70;65.60
33865;DHT22;20159;51.072;13.526;2023-04-01T14:24:36;18.60;65.40
33865;DHT22;20159;51.072;13.526;2023-04-01T14:27:19;18.50;65.50
33865;DHT22;20159;51.072;13.526;2023-04-01T14:35:38;18.40;65.50
33865;DHT22;20159;51.072;13.526;2023-04-01T14:38:28;18.20;66.40
33865;DHT22;20159;51.072;13.526;2023-04-01T14:49:46;17.70;67.40
33865;DHT22;20159;51.072;13.526;2023-04-01T14:54:46;17.40;69.40
33865;DHT22;20159;51.072;13.526;2023-04-01T14:57:24;17.20;69.60
33865;DHT22;20159;51.072;13.526;2023-04-01T15:08:01;17.10;71.00
33865;DHT22;20159;51.072;13.526;2023-04-01T15:10:53;17.00;71.00
33865;DHT22;20159;51.072;13.526;2023-04-01T15:13:26;17.00;71.40
33865;DHT22;20159;51.072;13.526;2023-04-01T15:16:04;17.00;71.90
33865;DHT22;20159;51.072;13.526;2023-04-01T15:18:45;17.00;72.20
33865;DHT22;20159;51.072;13.526;2023-04-01T15:24:07;17.00;72.00
33865;DHT22;20159;51.072;13.526;2023-04-01T15:29:40;16.90;71.70
33865;DHT22;20159;51.072;13.526;2023-04-01T15:32:46;16.80;72.30
33865;DHT22;20159;51.072;13.526;2023-04-01T15:35:27;16.70;72.10
33865;DHT22;20159;51.072;13.526;2023-04-01T15:38:11;16.70;72.20
33865;DHT22;20159;51.072;13.526;2023-04-01T15:40:53;16.60;72.30
33865;DHT22;20159;51.072;13.526;2023-04-01T15:43:36;16.60;72.50
33865;DHT22;20159;51.072;13.526;2023-04-01T15:46:36;16.60;71.70
33865;DHT22;20159;51.072;13.526;2023-04-01T15:49:35;16.50;71.80
33865;DHT22;20159;51.072;13.526;2023-04-01T15:52:19;16.50;72.00
33865;DHT22;20159;51.072;13.526;2023-04-01T15:55:18;16.40;72.30
33865;DHT22;20159;51.072;13.526;2023-04-01T15:58:28;16.40;72.70
33865;DHT22;20159;51.072;13.526;2023-04-01T16:01:15;16.40;72.60
33865;DHT22;20159;51.072;13.526;2023-04-01T16:11:57;16.40;74.00
33865;DHT22;20159;51.072;13.526;2023-04-01T16:17:35;16.40;74.70
33865;DHT22;20159;51.072;13.526;2023-04-01T16:22:39;16.40;74.30
33865;DHT22;20159;51.072;13.526;2023-04-01T16:30:48;16.30;74.40
33865;DHT22;20159;51.072;13.526;2023-04-01T16:33:35;16.30;74.30
33865;DHT22;20159;51.072;13.526;2023-04-01T16:44:49;16.00;75.50
33865;DHT22;20159;51.072;13.526;2023-04-01T16:47:40;16.00;75.80
33865;DHT22;20159;51.072;13.526;2023-04-01T16:53:17;15.80;76.10
33865;DHT22;20159;51.072;13.526;2023-04-01T16:56:10;15.80;76.20
33865;DHT22;20159;51.072;13.526;2023-04-01T16:58:41;15.70;76.50
33865;DHT22;20159;51.072;13.526;2023-04-01T17:01:20;15.60;76.50
33865;DHT22;20159;51.072;13.526;2023-04-01T17:03:52;15.60;76.90
33865;DHT22;20159;51.072;13.526;2023-04-01T17:11:56;15.30;77.80
33865;DHT22;20159;51.072;13.526;2023-04-01T17:25:25;15.00;78.80
33865;DHT22;20159;51.072;13.526;2023-04-01T17:30:40;14.90;80.20
33865;DHT22;20159;51.072;13.526;2023-04-01T17:33:21;14.90;80.00
33865;DHT22;20159;51.072;13.526;2023-04-01T17:38:49;14.80;79.80
33865;DHT22;20159;51.072;13.526;2023-04-01T17:44:30;14.80;80.20
33865;DHT22;20159;51.072;13.526;2023-04-01T17:50:02;14.80;80.00
33865;DHT22;20159;51.072;13.526;2023-04-01T17:53:02;14.70;80.00
33865;DHT22;20159;51.072;13.526;2023-04-01T17:56:01;14.70;80.60
33865;DHT22;20159;51.072;13.526;2023-04-01T18:07:46;14.30;81.20
33865;DHT22;20159;51.072;13.526;2023-04-01T18:10:22;14.20;81.20
33865;DHT22;20159;51.072;13.526;2023-04-01T18:13:08;14.20;81.00
33865;DHT22;20159;51.072;13.526;2023-04-01T18:15:44;14.10;81.40
33865;DHT22;20159;51.072;13.526;2023-04-01T18:18:39;14.00;81.90
33865;DHT22;20159;51.072;13.526;2023-04-01T18:21:40;13.90;82.90
33865;DHT22;20159;51.072;13.526;2023-04-01T18:27:24;13.80;83.20
33865;DHT22;20159;51.072;13.526;2023-04-01T18:30:03;12.90;82.70
33865;DHT22;20159;51.072;13.526;2023-04-01T18:32:43;15.70;84.90
33865;DHT22;20159;51.072;13.526;2023-04-01T18:35:34;13.60;83.90
33865;DHT22;20159;51.072;13.526;2023-04-01T18:40:37;14.30;84.20
33865;DHT22;20159;51.072;13.526;2023-04-01T18:43:36;13.50;84.70
33865;DHT22;20159;51.072;13.526;2023-04-01T18:49:05;13.40;84.70
33865;DHT22;20159;51.072;13.526;2023-04-01T18:51:41;13.40;85.20
33865;DHT22;20159;51.072;13.526;2023-04-01T18:56:48;13.30;85.10
33865;DHT22;20159;51.072;13.526;2023-04-01T19:02:40;13.30;85.60
33865;DHT22;20159;51.072;13.526;2023-04-01T19:05:12;13.30;85.50
33865;DHT22;20159;51.072;13.526;2023-04-01T19:07:41;13.30;85.10
33865;DHT22;20159;51.072;13.526;2023-04-01T19:13:19;13.20;86.20
33865;DHT22;20159;51.072;13.526;2023-04-01T19:15:57;13.20;85.90
33865;DHT22;20159;51.072;13.526;2023-04-01T19:21:35;13.10;86.80
33865;DHT22;20159;51.072;13.526;2023-04-01T19:24:16;13.10;87.30
33865;DHT22;20159;51.072;13.526;2023-04-01T19:26:53;13.10;87.40
33865;DHT22;20159;51.072;13.526;2023-04-01T19:29:50;13.10;86.80
33865;DHT22;20159;51.072;13.526;2023-04-01T19:35:40;13.10;87.30
33865;DHT22;20159;51.072;13.526;2023-04-01T19:38:20;13.10;87.80
33865;DHT22;20159;51.072;13.526;2023-04-01T19:41:32;13.10;88.20
33865;DHT22;20159;51.072;13.526;2023-04-01T19:44:24;13.10;89.10
33865;DHT22;20159;51.072;13.526;2023-04-01T19:52:40;13.00;90.40
33865;DHT22;20159;51.072;13.526;2023-04-01T19:55:37;12.90;90.90
33865;DHT22;20159;51.072;13.526;2023-04-01T19:58:31;12.90;91.00
33865;DHT22;20159;51.072;13.526;2023-04-01T20:00:59;12.80;91.10
33865;DHT22;20159;51.072;13.526;2023-04-01T20:06:10;12.70;91.50
33865;DHT22;20159;51.072;13.526;2023-04-01T20:11:50;12.60;91.80
33865;DHT22;20159;51.072;13.526;2023-04-01T20:17:25;12.50;92.00
33865;DHT22;20159;51.072;13.526;2023-04-01T20:25:53;12.50;92.60
33865;DHT22;20159;51.072;13.526;2023-04-01T20:36:51;12.40;92.90
33865;DHT22;20159;51.072;13.526;2023-04-01T20:39:46;12.40;92.50
33865;DHT22;20159;51.072;13.526;2023-04-01T20:42:28;12.40;93.00
33865;DHT22;20159;51.072;13.526;2023-04-01T20:45:33;12.40;93.00
33865;DHT22;20159;51.072;13.526;2023-04-01T20:48:42;12.40;93.10
33865;DHT22;20159;51.072;13.526;2023-04-01T20:51:30;12.30;93.30
33865;DHT22;20159;51.072;13.526;2023-04-01T20:59:36;12.30;93.30
33865;DHT22;20159;51.072;13.526;2023-04-01T21:13:27;12.30;93.80
33865;DHT22;20159;51.072;13.526;2023-04-01T21:21:41;12.20;94.10
33865;DHT22;20159;51.072;13.526;2023-04-01T21:26:43;12.20;93.90
33865;DHT22;20159;51.072;13.526;2023-04-01T21:29:33;12.10;93.90
33865;DHT22;20159;51.072;13.526;2023-04-01T21:32:20;12.10;94.20
33865;DHT22;20159;51.072;13.526;2023-04-01T21:38:11;12.00;93.90
33865;DHT22;20159;51.072;13.526;2023-04-01T21:43:39;11.90;94.00
33865;DHT22;20159;51.072;13.526;2023-04-01T21:46:53;12.00;93.90
33865;DHT22;20159;51.072;13.526;2023-04-01T21:49:39;11.90;94.00
33865;DHT22;20159;51.072;13.526;2023-04-01T21:52:22;11.80;93.80
33865;DHT22;20159;51.072;13.526;2023-04-01T21:55:24;11.80;93.90
33865;DHT22;20159;51.072;13.526;2023-04-01T22:00:42;11.70;94.40
33865;DHT22;20159;51.072;13.526;2023-04-01T22:08:58;11.60;94.50
33865;DHT22;20159;51.072;13.526;2023-04-01T22:11:42;11.60;94.30
33865;DHT22;20159;51.072;13.526;2023-04-01T22:14:46;11.60;94.30
33865;DHT22;20159;51.072;13.526;2023-04-01T22:17:35;11.60;94.40
33865;DHT22;20159;51.072;13.526;2023-04-01T22:20:27;11.50;94.30
33865;DHT22;20159;51.072;13.526;2023-04-01T22:25:46;11.40;94.30
33865;DHT22;20159;51.072;13.526;2023-04-01T22:28:21;11.40;94.50
33865;DHT22;20159;51.072;13.526;2023-04-01T22:30:59;11.40;94.30
33865;DHT22;20159;51.072;13.526;2023-04-01T22:33:32;11.40;94.50
33865;DHT22;20159;51.072;13.526;2023-04-01T22:36:02;11.30;94.50
33865;DHT22;20159;51.072;13.526;2023-04-01T22:44:47;11.20;94.70
33865;DHT22;20159;51.072;13.526;2023-04-01T22:50:14;10.60;94.70
33865;DHT22;20159;51.072;13.526;2023-04-01T22:52:46;11.20;94.70
33865;DHT22;20159;51.072;13.526;2023-04-01T22:55:22;11.10;94.50
33865;DHT22;20159;51.072;13.526;2023-04-01T22:57:58;11.10;94.60
33865;DHT22;20159;51.072;13.526;2023-04-01T23:00:32;11.10;94.60
33865;DHT22;20159;51.072;13.526;2023-04-01T23:03:15;11.10;94.60
33865;DHT22;20159;51.072;13.526;2023-04-01T23:05:57;11.10;94.70
33865;DHT22;20159;51.072;13.526;2023-04-01T23:08:49;11.10;94.60
33865;DHT22;20159;51.072;13.526;2023-04-01T23:12:07;11.00;94.90
33865;DHT22;20159;51.072;13.526;2023-04-01T23:28:46;10.90;94.30
33865;DHT22;20159;51.072;13.526;2023-04-01T23:31:36;10.80;94.60
33865;DHT22;20159;51.072;13.526;2023-04-01T23:36:46;10.80;94.20
33865;DHT22;20159;51.072;13.526;2023-04-01T23:42:18;10.70;94.50
33865;DHT22;20159;51.072;13.526;2023-04-01T23:44:46;10.70;94.40
33865;DHT22;20159;51.072;13.526;2023-04-01T23:47:17;10.70;94.30